createdAt,value
2019-01-14T00:00:16.011Z,5.80
2019-01-14T00:01:16.052Z,5.77
2019-01-14T00:02:16.335Z,5.79
2019-01-14T00:03:15.602Z,5.77
2019-01-14T00:04:15.876Z,5.76
2019-01-14T00:05:16.158Z,5.76
2019-01-14T00:06:16.421Z,5.76
2019-01-14T00:07:15.690Z,5.73
2019-01-14T00:08:15.955Z,5.76
2019-01-14T00:09:23.000Z,5.75
2019-01-14T00:10:16.193Z,5.75
2019-01-14T00:11:16.250Z,5.73
2019-01-14T00:12:16.508Z,5.75
2019-01-14T00:13:15.773Z,5.77
2019-01-14T00:14:16.038Z,5.75
2019-01-14T00:15:16.320Z,5.73
2019-01-14T00:16:15.595Z,5.72
2019-01-14T00:17:15.862Z,5.70
2019-01-14T00:18:16.124Z,5.69
2019-01-14T00:19:16.394Z,5.69
2019-01-14T00:20:15.677Z,5.73
2019-01-14T00:21:15.842Z,5.72
2019-01-14T00:22:16.118Z,5.73
2019-01-14T00:23:16.384Z,5.73
2019-01-14T00:24:15.649Z,5.76
2019-01-14T00:25:15.913Z,5.75
2019-01-14T00:26:16.179Z,5.73
2019-01-14T00:27:16.449Z,5.73
2019-01-14T00:28:15.726Z,5.76
2019-01-14T00:29:16.003Z,5.70
2019-01-14T00:30:16.274Z,5.73
2019-01-14T00:31:16.330Z,5.73
2019-01-14T00:32:15.604Z,5.73
2019-01-14T00:33:15.881Z,5.75
2019-01-14T00:34:16.140Z,5.75
2019-01-14T00:35:16.399Z,5.72
2019-01-14T00:36:17.525Z,5.75
2019-01-14T00:37:16.088Z,5.73
2019-01-14T00:38:16.353Z,5.75
2019-01-14T00:39:15.616Z,5.69
2019-01-14T00:40:15.895Z,5.73
2019-01-14T00:41:15.942Z,5.75
2019-01-14T00:42:16.205Z,5.77
2019-01-14T00:43:16.490Z,5.79
2019-01-14T00:44:15.750Z,5.75
2019-01-14T00:45:16.025Z,5.76
2019-01-14T00:46:16.287Z,5.77
2019-01-14T00:47:16.554Z,5.80
2019-01-14T00:48:15.812Z,5.80
2019-01-14T00:49:16.082Z,5.76
2019-01-14T00:50:16.374Z,5.75
2019-01-14T00:51:16.393Z,5.77
2019-01-14T00:52:15.652Z,5.77
2019-01-14T00:53:15.913Z,5.77
2019-01-14T00:54:16.183Z,5.79
2019-01-14T00:55:16.471Z,5.76
2019-01-14T00:56:15.738Z,5.79
2019-01-14T00:57:15.999Z,5.76
2019-01-14T00:58:16.264Z,5.76
2019-01-14T00:59:16.529Z,5.77
2019-01-14T01:00:15.794Z,5.77
2019-01-14T01:01:15.876Z,5.76
2019-01-14T01:02:16.144Z,5.75
2019-01-14T01:03:16.399Z,5.73
2019-01-14T01:04:15.663Z,5.73
2019-01-14T01:05:15.933Z,5.75
2019-01-14T01:06:16.450Z,5.77
2019-01-14T01:07:15.756Z,5.77
2019-01-14T01:08:16.022Z,5.79
2019-01-14T01:09:16.287Z,5.76
2019-01-14T01:10:16.573Z,5.75
2019-01-14T01:11:15.599Z,5.76
2019-01-14T01:12:15.859Z,5.73
2019-01-14T01:13:16.127Z,5.73
2019-01-14T01:14:16.394Z,5.75
2019-01-14T01:15:15.663Z,5.75
2019-01-14T01:16:15.929Z,5.75
2019-01-14T01:17:16.198Z,5.75
2019-01-14T01:18:16.465Z,5.75
2019-01-14T01:19:15.733Z,5.72
2019-01-14T01:20:16.022Z,5.70
2019-01-14T01:21:16.056Z,5.70
2019-01-14T01:22:16.322Z,5.70
2019-01-14T01:23:15.585Z,5.73
2019-01-14T01:24:15.843Z,5.73
2019-01-14T01:25:16.111Z,5.72
2019-01-14T01:26:16.378Z,5.70
2019-01-14T01:27:15.637Z,5.69
2019-01-14T01:28:15.901Z,5.70
2019-01-14T01:29:16.164Z,5.73
2019-01-14T01:30:16.470Z,5.68
2019-01-14T01:31:16.518Z,5.69
2019-01-14T01:32:15.782Z,5.72
2019-01-14T01:33:16.046Z,5.73
2019-01-14T01:34:16.316Z,5.70
2019-01-14T01:35:15.582Z,5.70
2019-01-14T01:36:15.843Z,5.73
2019-01-14T01:37:16.123Z,5.66
2019-01-14T01:38:16.381Z,5.66
2019-01-14T01:39:15.650Z,5.68
2019-01-14T01:40:15.915Z,5.70
2019-01-14T01:41:15.973Z,5.69
2019-01-14T01:42:16.252Z,5.68
2019-01-14T01:43:16.516Z,5.68
2019-01-14T01:44:15.794Z,5.68
2019-01-14T01:45:16.072Z,5.68
2019-01-14T01:46:16.331Z,5.70
2019-01-14T01:47:15.597Z,5.68
2019-01-14T01:48:15.867Z,5.68
2019-01-14T01:49:16.127Z,5.68
2019-01-14T01:50:16.395Z,5.68
2019-01-14T01:51:16.440Z,5.65
2019-01-14T01:52:15.712Z,5.66
2019-01-14T01:53:15.982Z,5.65
2019-01-14T01:54:16.255Z,5.65
2019-01-14T01:55:16.520Z,5.63
2019-01-14T01:56:15.781Z,5.63
2019-01-14T01:57:16.050Z,5.65
2019-01-14T01:58:16.323Z,5.62
2019-01-14T01:59:15.607Z,5.61
2019-01-14T02:00:15.889Z,5.61
2019-01-14T02:01:15.927Z,5.61
2019-01-14T02:02:16.197Z,5.63
2019-01-14T02:03:16.464Z,5.61
2019-01-14T02:04:15.725Z,5.59
2019-01-14T02:05:15.999Z,5.58
2019-01-14T02:06:16.270Z,5.58
2019-01-14T02:07:16.539Z,5.58
2019-01-14T02:08:15.815Z,5.58
2019-01-14T02:09:16.089Z,5.58
2019-01-14T02:10:16.360Z,5.61
2019-01-14T02:11:16.446Z,5.61
2019-01-14T02:12:15.708Z,5.59
2019-01-14T02:13:15.986Z,5.55
2019-01-14T02:14:16.246Z,5.53
2019-01-14T02:15:16.520Z,5.52
2019-01-14T02:16:15.785Z,5.58
2019-01-14T02:17:16.118Z,5.55
2019-01-14T02:18:16.395Z,5.53
2019-01-14T02:19:15.660Z,5.52
2019-01-14T02:20:15.934Z,5.55
2019-01-14T02:21:15.997Z,5.51
2019-01-14T02:22:16.261Z,5.52
2019-01-14T02:23:16.523Z,5.53
2019-01-14T02:24:15.783Z,5.55
2019-01-14T02:25:16.051Z,5.53
2019-01-14T02:26:16.334Z,5.55
2019-01-14T02:27:15.596Z,5.51
2019-01-14T02:28:15.862Z,5.50
2019-01-14T02:29:16.134Z,5.48
2019-01-14T02:30:16.468Z,5.45
2019-01-14T02:31:16.873Z,5.46
2019-01-14T02:32:16.148Z,5.42
2019-01-14T02:33:16.416Z,5.43
2019-01-14T02:34:15.752Z,5.45
2019-01-14T02:35:16.021Z,5.42
2019-01-14T02:36:16.289Z,5.39
2019-01-14T02:37:15.561Z,5.42
2019-01-14T02:38:15.828Z,5.38
2019-01-14T02:39:16.115Z,5.41
2019-01-14T02:40:16.397Z,5.42
2019-01-14T02:41:16.738Z,5.42
2019-01-14T02:42:16.013Z,5.41
2019-01-14T02:43:16.285Z,5.41
2019-01-14T02:44:16.553Z,5.39
2019-01-14T02:45:15.831Z,5.39
2019-01-14T02:46:16.101Z,5.41
2019-01-14T02:47:16.363Z,5.41
2019-01-14T02:48:15.627Z,5.38
2019-01-14T02:49:15.889Z,5.45
2019-01-14T02:50:16.165Z,5.45
2019-01-14T02:51:16.206Z,5.45
2019-01-14T02:52:16.477Z,5.43
2019-01-14T02:53:15.750Z,5.45
2019-01-14T02:54:16.007Z,5.45
2019-01-14T02:55:16.271Z,5.45
2019-01-14T02:56:16.537Z,5.48
2019-01-14T02:57:16.057Z,5.45
2019-01-14T02:58:16.326Z,5.48
2019-01-14T02:59:15.596Z,5.43
2019-01-14T03:00:15.873Z,5.41
2019-01-14T03:01:15.932Z,5.41
2019-01-14T03:02:16.190Z,5.45
2019-01-14T03:03:16.449Z,5.43
2019-01-14T03:04:15.715Z,5.43
2019-01-14T03:05:15.978Z,5.45
2019-01-14T03:06:16.292Z,5.41
2019-01-14T03:07:16.578Z,5.42
2019-01-14T03:08:15.843Z,5.41
2019-01-14T03:09:16.106Z,5.41
2019-01-14T03:10:16.381Z,5.41
2019-01-14T03:11:16.429Z,5.41
2019-01-14T03:12:15.697Z,5.43
2019-01-14T03:13:16.068Z,5.45
2019-01-14T03:14:16.343Z,5.52
2019-01-14T03:15:15.617Z,5.51
2019-01-14T03:16:15.881Z,5.49
2019-01-14T03:17:16.158Z,5.48
2019-01-14T03:18:16.419Z,5.43
2019-01-14T03:19:16.448Z,5.41
2019-01-14T03:20:15.767Z,5.45
2019-01-14T03:21:15.821Z,5.45
2019-01-14T03:22:16.098Z,5.46
2019-01-14T03:23:15.777Z,5.45
2019-01-14T03:24:16.050Z,5.42
2019-01-14T03:25:16.316Z,5.39
2019-01-14T03:26:15.588Z,5.42
2019-01-14T03:27:15.862Z,5.48
2019-01-14T03:28:16.139Z,5.45
2019-01-14T03:29:16.416Z,5.40
2019-01-14T03:30:15.723Z,5.42
2019-01-14T03:31:15.749Z,5.41
2019-01-14T03:32:16.025Z,5.38
2019-01-14T03:33:16.315Z,5.38
2019-01-14T03:34:15.625Z,5.38
2019-01-14T03:35:15.898Z,5.38
2019-01-14T03:36:16.158Z,5.38
2019-01-14T03:37:16.421Z,5.39
2019-01-14T03:38:15.685Z,5.38
2019-01-14T03:39:15.976Z,5.34
2019-01-14T03:40:16.312Z,5.25
2019-01-14T03:41:16.336Z,5.28
2019-01-14T03:42:15.605Z,5.30
2019-01-14T03:43:15.868Z,5.30
2019-01-14T03:44:16.128Z,5.28
2019-01-14T03:45:16.420Z,5.27
2019-01-14T03:46:15.706Z,5.27
2019-01-14T03:47:15.966Z,5.27
2019-01-14T03:48:16.242Z,5.24
2019-01-14T03:49:16.523Z,5.24
2019-01-14T03:50:16.044Z,5.24
2019-01-14T03:51:16.099Z,5.24
2019-01-14T03:52:16.436Z,5.25
2019-01-14T03:53:15.698Z,5.24
2019-01-14T03:54:15.971Z,5.23
2019-01-14T03:55:15.785Z,5.20
2019-01-14T03:56:16.059Z,5.18
2019-01-14T03:57:16.328Z,5.15
2019-01-14T03:58:15.605Z,5.13
2019-01-14T03:59:15.894Z,5.12
2019-01-14T04:00:16.180Z,5.11
2019-01-14T04:01:16.203Z,5.11
2019-01-14T04:02:16.460Z,5.11
2019-01-14T04:03:15.734Z,5.06
2019-01-14T04:04:16.011Z,5.08
2019-01-14T04:05:16.292Z,5.06
2019-01-14T04:06:15.582Z,5.14
2019-01-14T04:07:15.853Z,5.13
2019-01-14T04:08:16.118Z,5.14
2019-01-14T04:09:16.389Z,5.15
2019-01-14T04:10:15.665Z,5.14
2019-01-14T04:11:15.719Z,5.14
2019-01-14T04:12:15.989Z,5.10
2019-01-14T04:13:16.245Z,5.17
2019-01-14T04:14:16.513Z,5.20
2019-01-14T04:15:15.779Z,5.20
2019-01-14T04:16:16.055Z,5.28
2019-01-14T04:17:16.324Z,5.21
2019-01-14T04:18:15.595Z,5.21
2019-01-14T04:19:15.861Z,5.20
2019-01-14T04:20:16.143Z,5.18
2019-01-14T04:21:16.183Z,5.17
2019-01-14T04:22:16.462Z,5.17
2019-01-14T04:23:15.726Z,5.18
2019-01-14T04:24:16.017Z,5.21
2019-01-14T04:25:16.286Z,5.21
2019-01-14T04:26:15.557Z,5.23
2019-01-14T04:27:15.824Z,5.18
2019-01-14T04:28:16.086Z,5.18
2019-01-14T04:29:16.352Z,5.18
2019-01-14T04:30:15.632Z,5.25
2019-01-14T04:31:15.930Z,5.24
2019-01-14T04:32:16.265Z,5.27
2019-01-14T04:33:16.529Z,5.23
2019-01-14T04:34:15.785Z,5.24
2019-01-14T04:35:16.053Z,5.20
2019-01-14T04:36:16.321Z,5.18
2019-01-14T04:37:21.471Z,5.20
2019-01-14T04:38:16.104Z,5.23
2019-01-14T04:39:16.362Z,5.24
2019-01-14T04:40:15.627Z,5.21
2019-01-14T04:41:15.681Z,5.21
2019-01-14T04:42:15.940Z,5.18
2019-01-14T04:43:16.213Z,5.20
2019-01-14T04:44:16.482Z,5.21
2019-01-14T04:45:15.757Z,5.21
2019-01-14T04:46:16.026Z,5.20
2019-01-14T04:47:16.291Z,5.18
2019-01-14T04:48:16.560Z,5.20
2019-01-14T04:49:15.835Z,5.18
2019-01-14T04:50:16.105Z,5.20
2019-01-14T04:51:16.191Z,5.21
2019-01-14T04:52:16.457Z,5.20
2019-01-14T04:53:15.732Z,5.17
2019-01-14T04:54:15.997Z,5.21
2019-01-14T04:55:16.263Z,5.20
2019-01-14T04:56:16.546Z,5.17
2019-01-14T04:57:15.830Z,5.15
2019-01-14T04:58:16.093Z,5.20
2019-01-14T04:59:16.363Z,5.17
2019-01-14T05:00:15.649Z,5.14
2019-01-14T05:01:15.674Z,5.17
2019-01-14T05:02:15.940Z,5.13
2019-01-14T05:03:16.213Z,5.14
2019-01-14T05:04:16.496Z,5.11
2019-01-14T05:05:15.767Z,5.07
2019-01-14T05:06:16.026Z,5.06
2019-01-14T05:07:16.287Z,5.10
2019-01-14T05:08:16.560Z,5.10
2019-01-14T05:09:15.830Z,5.03
2019-01-14T05:10:16.114Z,4.96
2019-01-14T05:11:16.350Z,4.93
2019-01-14T05:12:15.642Z,4.90
2019-01-14T05:13:15.913Z,4.86
2019-01-14T05:14:16.177Z,4.86
2019-01-14T05:15:16.460Z,4.87
2019-01-14T05:16:15.731Z,4.87
2019-01-14T05:17:16.009Z,4.92
2019-01-14T05:18:16.293Z,4.90
2019-01-14T05:19:15.556Z,4.89
2019-01-14T05:20:15.827Z,4.93
2019-01-14T05:21:15.875Z,4.95
2019-01-14T05:22:16.128Z,4.90
2019-01-14T05:23:16.402Z,4.92
2019-01-14T05:24:15.691Z,4.92
2019-01-14T05:25:15.974Z,4.89
2019-01-14T05:26:16.237Z,4.89
2019-01-14T05:27:16.518Z,4.96
2019-01-14T05:28:15.794Z,4.96
2019-01-14T05:29:16.057Z,4.88
2019-01-14T05:30:16.346Z,4.90
2019-01-14T05:31:16.378Z,4.90
2019-01-14T05:32:15.639Z,4.85
2019-01-14T05:33:15.901Z,4.93
2019-01-14T05:34:16.159Z,4.84
2019-01-14T05:35:16.433Z,4.88
2019-01-14T05:36:15.696Z,4.86
2019-01-14T05:37:15.964Z,4.75
2019-01-14T05:38:16.227Z,4.71
2019-01-14T05:39:16.493Z,4.71
2019-01-14T05:40:15.781Z,4.68
2019-01-14T05:41:15.832Z,4.61
2019-01-14T05:42:16.098Z,4.61
2019-01-14T05:43:16.367Z,4.54
2019-01-14T05:44:15.634Z,4.36
2019-01-14T05:45:15.900Z,4.33
2019-01-14T05:46:16.470Z,4.26
2019-01-14T05:47:15.749Z,4.17
2019-01-14T05:48:16.022Z,4.09
2019-01-14T05:49:16.299Z,4.06
2019-01-14T05:50:15.573Z,4.10
2019-01-14T05:51:15.617Z,4.03
2019-01-14T05:52:15.879Z,3.98
2019-01-14T05:53:16.145Z,3.92
2019-01-14T05:54:16.405Z,3.95
2019-01-14T05:55:15.671Z,3.95
2019-01-14T05:56:15.961Z,3.85
2019-01-14T05:57:15.955Z,3.77
2019-01-14T05:58:16.228Z,3.85
2019-01-14T05:59:16.499Z,3.82
2019-01-14T06:00:15.786Z,3.81
2019-01-14T06:01:15.832Z,3.77
2019-01-14T06:02:16.110Z,3.82
2019-01-14T06:03:16.377Z,3.78
2019-01-14T06:04:15.639Z,3.77
2019-01-14T06:05:15.903Z,3.79
2019-01-14T06:06:16.157Z,3.81
2019-01-14T06:07:16.434Z,3.64
2019-01-14T06:08:15.762Z,3.64
2019-01-14T06:09:16.020Z,3.69
2019-01-14T06:10:16.297Z,3.72
2019-01-14T06:11:16.333Z,3.68
2019-01-14T06:12:15.592Z,3.47
2019-01-14T06:13:15.857Z,3.49
2019-01-14T06:14:16.140Z,3.57
2019-01-14T06:15:16.421Z,3.55
2019-01-14T06:16:15.716Z,3.54
2019-01-14T06:17:15.992Z,3.46
2019-01-14T06:18:16.261Z,3.57
2019-01-14T06:19:16.523Z,3.50
2019-01-14T06:20:15.802Z,3.49
2019-01-14T06:21:15.846Z,3.51
2019-01-14T06:22:16.116Z,3.51
2019-01-14T06:23:16.387Z,3.37
2019-01-14T06:24:15.647Z,3.33
2019-01-14T06:25:15.915Z,3.41
2019-01-14T06:26:16.195Z,3.31
2019-01-14T06:27:16.462Z,3.27
2019-01-14T06:28:15.770Z,3.41
2019-01-14T06:29:16.032Z,3.44
2019-01-14T06:30:16.313Z,3.40
2019-01-14T06:31:16.344Z,3.34
2019-01-14T06:32:15.614Z,3.26
2019-01-14T06:33:15.885Z,3.39
2019-01-14T06:34:16.167Z,3.34
2019-01-14T06:35:16.475Z,3.30
2019-01-14T06:36:15.785Z,3.36
2019-01-14T06:37:16.060Z,3.16
2019-01-14T06:38:16.333Z,3.23
2019-01-14T06:39:15.603Z,3.28
2019-01-14T06:40:15.882Z,3.28
2019-01-14T06:41:15.922Z,3.28
2019-01-14T06:42:16.191Z,3.24
2019-01-14T06:43:16.463Z,3.24
2019-01-14T06:44:15.732Z,3.26
2019-01-14T06:45:16.006Z,3.26
2019-01-14T06:46:16.265Z,3.26
2019-01-14T06:47:16.522Z,3.24
2019-01-14T06:48:15.775Z,3.26
2019-01-14T06:49:16.049Z,3.24
2019-01-14T06:50:16.338Z,3.23
2019-01-14T06:51:16.367Z,3.23
2019-01-14T06:52:15.629Z,3.23
2019-01-14T06:53:15.892Z,3.26
2019-01-14T06:54:16.167Z,3.27
2019-01-14T06:55:16.444Z,3.23
2019-01-14T06:56:15.721Z,3.28
2019-01-14T06:57:15.993Z,3.26
2019-01-14T06:58:16.253Z,3.27
2019-01-14T06:59:16.515Z,3.34
2019-01-14T07:00:15.814Z,3.36
2019-01-14T07:01:15.851Z,3.36
2019-01-14T07:02:16.127Z,3.31
2019-01-14T07:03:16.395Z,3.28
2019-01-14T07:04:15.675Z,3.36
2019-01-14T07:05:15.944Z,3.33
2019-01-14T07:06:16.213Z,3.27
2019-01-14T07:07:16.470Z,3.28
2019-01-14T07:08:15.726Z,3.34
2019-01-14T07:09:15.990Z,3.28
2019-01-14T07:10:16.257Z,3.28
2019-01-14T07:11:16.298Z,3.27
2019-01-14T07:12:15.568Z,3.30
2019-01-14T07:13:15.841Z,3.27
2019-01-14T07:14:16.115Z,3.31
2019-01-14T07:15:16.393Z,3.36
2019-01-14T07:16:15.672Z,3.34
2019-01-14T07:17:16.003Z,3.36
2019-01-14T07:18:16.319Z,3.37
2019-01-14T07:19:15.588Z,3.39
2019-01-14T07:20:15.864Z,3.41
2019-01-14T07:21:15.907Z,3.43
2019-01-14T07:22:16.165Z,3.41
2019-01-14T07:23:16.424Z,3.40
2019-01-14T07:24:15.698Z,3.44
2019-01-14T07:25:15.972Z,3.43
2019-01-14T07:26:16.251Z,3.51
2019-01-14T07:27:16.512Z,3.53
2019-01-14T07:28:15.789Z,3.54
2019-01-14T07:29:16.053Z,3.60
2019-01-14T07:30:16.333Z,3.64
2019-01-14T07:31:16.393Z,3.64
2019-01-14T07:32:15.661Z,3.64
2019-01-14T07:33:15.997Z,3.61
2019-01-14T07:34:16.268Z,3.64
2019-01-14T07:35:16.536Z,3.61
2019-01-14T07:36:15.793Z,3.64
2019-01-14T07:37:16.068Z,3.65
2019-01-14T07:38:16.337Z,3.68
2019-01-14T07:39:15.609Z,3.69
2019-01-14T07:40:15.876Z,3.72
2019-01-14T07:41:15.912Z,3.77
2019-01-14T07:42:16.176Z,3.72
2019-01-14T07:43:16.440Z,3.69
2019-01-14T07:44:15.706Z,3.68
2019-01-14T07:45:15.982Z,3.71
2019-01-14T07:46:16.241Z,3.65
2019-01-14T07:47:16.518Z,3.64
2019-01-14T07:48:15.805Z,3.64
2019-01-14T07:49:16.071Z,3.64
2019-01-14T07:50:16.355Z,3.62
2019-01-14T07:51:16.384Z,3.62
2019-01-14T07:52:15.653Z,3.61
2019-01-14T07:53:15.920Z,3.62
2019-01-14T07:54:16.193Z,3.64
2019-01-14T07:55:16.464Z,3.64
2019-01-14T07:56:15.732Z,3.69
2019-01-14T07:57:17.437Z,3.69
2019-01-14T07:58:15.797Z,3.71
2019-01-14T07:59:16.061Z,3.74
2019-01-14T08:00:16.336Z,3.74
2019-01-14T08:01:16.400Z,3.75
2019-01-14T08:02:15.665Z,3.82
2019-01-14T08:03:15.941Z,3.81
2019-01-14T08:04:16.202Z,3.82
2019-01-14T08:05:16.475Z,3.85
2019-01-14T08:06:15.736Z,3.88
2019-01-14T08:07:16.005Z,3.86
2019-01-14T08:08:16.267Z,3.86
2019-01-14T08:09:16.534Z,3.89
2019-01-14T08:10:15.796Z,3.89
2019-01-14T08:11:15.832Z,3.90
2019-01-14T08:12:16.089Z,3.93
2019-01-14T08:13:16.351Z,3.99
2019-01-14T08:14:15.615Z,3.96
2019-01-14T08:15:15.889Z,3.95
2019-01-14T08:16:16.152Z,3.95
2019-01-14T08:17:16.438Z,4.06
2019-01-14T08:18:15.699Z,4.07
2019-01-14T08:19:15.958Z,4.08
2019-01-14T08:20:16.229Z,4.08
2019-01-14T08:21:16.275Z,4.13
2019-01-14T08:22:16.535Z,4.10
2019-01-14T08:23:15.802Z,4.12
2019-01-14T08:24:16.069Z,4.08
2019-01-14T08:25:16.330Z,4.10
2019-01-14T08:26:15.594Z,4.19
2019-01-14T08:27:15.870Z,4.24
2019-01-14T08:28:16.146Z,4.24
2019-01-14T08:29:16.407Z,4.20
2019-01-14T08:30:15.678Z,4.21
2019-01-14T08:31:15.753Z,4.28
2019-01-14T08:32:16.018Z,4.35
2019-01-14T08:33:16.279Z,4.30
2019-01-14T08:34:16.540Z,4.21
2019-01-14T08:35:15.801Z,4.27
2019-01-14T08:36:16.067Z,4.27
2019-01-14T08:37:16.338Z,4.36
2019-01-14T08:38:21.123Z,4.36
2019-01-14T08:39:15.784Z,4.31
2019-01-14T08:40:16.066Z,4.37
2019-01-14T08:41:16.118Z,4.38
2019-01-14T08:42:16.384Z,4.40
2019-01-14T08:43:15.640Z,4.36
2019-01-14T08:44:15.913Z,4.41
2019-01-14T08:45:16.182Z,4.41
2019-01-14T08:46:16.457Z,4.41
2019-01-14T08:47:15.726Z,4.40
2019-01-14T08:48:15.986Z,4.43
2019-01-14T08:49:16.251Z,4.47
2019-01-14T08:50:16.530Z,4.55
2019-01-14T08:51:15.576Z,4.54
2019-01-14T08:52:15.854Z,4.48
2019-01-14T08:53:16.127Z,4.51
2019-01-14T08:54:16.385Z,4.51
2019-01-14T08:55:15.712Z,4.54
2019-01-14T08:56:15.973Z,4.54
2019-01-14T08:57:16.235Z,4.63
2019-01-14T08:58:16.509Z,4.57
2019-01-14T08:59:15.780Z,4.55
2019-01-14T09:00:16.071Z,4.55
2019-01-14T09:01:16.108Z,4.57
2019-01-14T09:02:16.371Z,4.55
2019-01-14T09:03:15.633Z,4.55
2019-01-14T09:04:15.894Z,4.54
2019-01-14T09:05:16.198Z,4.61
2019-01-14T09:06:16.466Z,4.65
2019-01-14T09:07:15.730Z,4.60
2019-01-14T09:08:15.987Z,4.55
2019-01-14T09:09:16.261Z,4.54
2019-01-14T09:10:16.528Z,4.53
2019-01-14T09:11:15.595Z,4.55
2019-01-14T09:12:15.862Z,4.55
2019-01-14T09:13:16.125Z,4.58
2019-01-14T09:14:16.399Z,4.61
2019-01-14T09:15:15.660Z,4.64
2019-01-14T09:16:15.922Z,4.63
2019-01-14T09:17:16.175Z,4.60
2019-01-14T09:18:16.457Z,4.61
2019-01-14T09:19:15.716Z,4.61
2019-01-14T09:20:15.982Z,4.58
2019-01-14T09:21:16.062Z,4.63
2019-01-14T09:22:16.316Z,4.61
2019-01-14T09:23:15.577Z,4.60
2019-01-14T09:24:15.860Z,4.68
2019-01-14T09:25:16.129Z,4.71
2019-01-14T09:26:16.401Z,4.72
2019-01-14T09:27:15.665Z,4.76
2019-01-14T09:28:15.926Z,4.82
2019-01-14T09:29:16.234Z,4.85
2019-01-14T09:30:16.538Z,4.93
2019-01-14T09:31:15.574Z,4.96
2019-01-14T09:32:15.832Z,4.99
2019-01-14T09:33:16.088Z,5.07
2019-01-14T09:34:16.346Z,5.10
2019-01-14T09:35:15.605Z,4.96
2019-01-14T09:36:15.864Z,4.98
2019-01-14T09:37:16.128Z,4.99
2019-01-14T09:38:16.400Z,4.95
2019-01-14T09:39:15.667Z,4.91
2019-01-14T09:40:15.948Z,4.85
2019-01-14T09:41:15.969Z,4.86
2019-01-14T09:42:16.230Z,4.85
2019-01-14T09:43:16.497Z,4.88
2019-01-14T09:44:15.763Z,4.88
2019-01-14T09:45:16.028Z,4.86
2019-01-14T09:46:16.285Z,4.85
2019-01-14T09:47:16.545Z,4.84
2019-01-14T09:48:15.827Z,4.84
2019-01-14T09:49:16.105Z,4.76
2019-01-14T09:50:16.365Z,4.74
2019-01-14T09:51:16.422Z,4.64
2019-01-14T09:52:15.693Z,4.64
2019-01-14T09:53:15.958Z,3.64
2019-01-14T09:54:16.217Z,3.19
2019-01-14T09:55:16.487Z,3.06
2019-01-14T09:56:15.763Z,2.92
2019-01-14T09:57:16.027Z,2.32
2019-01-14T09:58:16.286Z,2.27
2019-01-14T09:59:16.553Z,2.12
2019-01-14T10:00:15.827Z,2.02
2019-01-14T10:01:15.894Z,1.96
2019-01-14T10:02:16.163Z,1.85
2019-01-14T10:03:16.441Z,1.83
2019-01-14T10:04:15.712Z,1.71
2019-01-14T10:05:15.996Z,1.71
2019-01-14T10:06:16.269Z,1.57
2019-01-14T10:07:16.560Z,1.48
2019-01-14T10:08:15.919Z,1.37
2019-01-14T10:09:16.174Z,1.34
2019-01-14T10:10:16.448Z,1.29
2019-01-14T10:11:16.502Z,1.31
2019-01-14T10:12:15.770Z,1.31
2019-01-14T10:13:16.037Z,1.43
2019-01-14T10:14:16.313Z,1.43
2019-01-14T10:15:15.576Z,1.46
2019-01-14T10:16:15.841Z,1.47
2019-01-14T10:17:16.112Z,1.48
2019-01-14T10:18:16.376Z,1.55
2019-01-14T10:19:15.644Z,1.57
2019-01-14T10:20:15.937Z,1.57
2019-01-14T10:21:15.974Z,1.55
2019-01-14T10:22:16.331Z,1.57
2019-01-14T10:23:15.848Z,1.68
2019-01-14T10:24:16.105Z,1.64
2019-01-14T10:25:16.370Z,1.67
2019-01-14T10:26:16.228Z,1.74
2019-01-14T10:27:15.562Z,1.71
2019-01-14T10:28:15.828Z,1.67
2019-01-14T10:29:16.087Z,1.71
2019-01-14T10:30:16.355Z,1.77
2019-01-14T10:31:19.832Z,1.75
2019-01-14T10:32:16.379Z,1.79
2019-01-14T10:33:15.636Z,1.78
2019-01-14T10:34:15.894Z,1.83
2019-01-14T10:35:16.179Z,1.88
2019-01-14T10:36:16.447Z,1.89
2019-01-14T10:37:22.634Z,1.95
2019-01-14T10:38:16.258Z,1.93
2019-01-14T10:39:17.091Z,1.99
2019-01-14T10:40:16.468Z,2.03
2019-01-14T10:41:16.515Z,2.14
2019-01-14T10:42:15.779Z,2.19
2019-01-14T10:43:16.046Z,2.24
2019-01-14T10:44:16.306Z,2.29
2019-01-14T10:45:15.573Z,2.27
2019-01-14T10:46:15.845Z,2.30
2019-01-14T10:47:16.101Z,2.36
2019-01-14T10:48:16.359Z,2.32
2019-01-14T10:49:15.628Z,2.38
2019-01-14T10:50:15.896Z,2.38
2019-01-14T10:51:15.948Z,2.43
2019-01-14T10:52:16.222Z,2.43
2019-01-14T10:53:16.484Z,2.51
2019-01-14T10:54:15.740Z,2.55
2019-01-14T10:55:16.026Z,2.57
2019-01-14T10:56:16.297Z,2.58
2019-01-14T10:57:15.608Z,2.65
2019-01-14T10:58:15.884Z,2.68
2019-01-14T10:59:16.150Z,2.75
2019-01-14T11:00:16.418Z,2.78
2019-01-14T11:01:16.476Z,2.84
2019-01-14T11:02:15.745Z,2.89
2019-01-14T11:03:16.018Z,2.95
2019-01-14T11:04:16.284Z,2.93
2019-01-14T11:05:16.566Z,3.00
2019-01-14T11:06:15.829Z,3.00
2019-01-14T11:07:16.099Z,2.98
2019-01-14T11:08:16.366Z,2.98
2019-01-14T11:09:15.634Z,2.96
2019-01-14T11:10:15.919Z,3.03
2019-01-14T11:11:15.961Z,3.06
2019-01-14T11:12:16.226Z,3.07
2019-01-14T11:13:16.507Z,3.06
2019-01-14T11:14:15.779Z,3.14
2019-01-14T11:15:16.056Z,3.13
2019-01-14T11:16:16.319Z,3.24
2019-01-14T11:17:15.584Z,3.34
2019-01-14T11:18:15.855Z,3.36
2019-01-14T11:19:16.128Z,3.37
2019-01-14T11:20:16.392Z,3.37
2019-01-14T11:21:16.438Z,3.46
2019-01-14T11:22:15.706Z,3.47
2019-01-14T11:23:15.979Z,3.50
2019-01-14T11:24:16.245Z,3.50
2019-01-14T11:25:16.521Z,3.51
2019-01-14T11:26:15.782Z,3.62
2019-01-14T11:27:16.048Z,3.62
2019-01-14T11:28:16.312Z,3.77
2019-01-14T11:29:15.584Z,3.68
2019-01-14T11:30:15.862Z,3.72
2019-01-14T11:31:15.891Z,3.90
2019-01-14T11:32:16.160Z,3.88
2019-01-14T11:33:16.433Z,3.89
2019-01-14T11:34:15.704Z,3.98
2019-01-14T11:35:15.974Z,3.98
2019-01-14T11:36:16.243Z,3.96
2019-01-14T11:37:16.522Z,4.00
2019-01-14T11:38:15.790Z,4.00
2019-01-14T11:39:16.056Z,3.99
2019-01-14T11:40:16.328Z,4.02
2019-01-14T11:41:16.391Z,4.08
2019-01-14T11:42:15.699Z,4.19
2019-01-14T11:43:15.957Z,4.19
2019-01-14T11:44:16.229Z,4.16
2019-01-14T11:45:16.503Z,4.06
2019-01-14T11:46:15.778Z,4.20
2019-01-14T11:47:16.039Z,4.14
2019-01-14T11:48:16.305Z,4.21
2019-01-14T11:49:15.569Z,4.19
2019-01-14T11:50:17.221Z,4.20
2019-01-14T11:51:15.897Z,4.27
2019-01-14T11:52:16.176Z,4.27
2019-01-14T11:53:16.442Z,4.34
2019-01-14T11:54:15.706Z,4.41
2019-01-14T11:55:15.984Z,4.40
2019-01-14T11:56:16.244Z,4.43
2019-01-14T11:57:16.516Z,4.44
2019-01-14T11:58:15.779Z,4.38
2019-01-14T11:59:16.050Z,4.47
2019-01-14T12:00:16.338Z,4.44
2019-01-14T12:01:16.369Z,4.41
2019-01-14T12:02:15.663Z,4.41
2019-01-14T12:03:15.933Z,4.60
2019-01-14T12:04:16.211Z,4.51
2019-01-14T12:05:16.477Z,4.47
2019-01-14T12:06:15.742Z,4.58
2019-01-14T12:07:16.007Z,4.58
2019-01-14T12:08:16.270Z,4.69
2019-01-14T12:09:16.542Z,4.76
2019-01-14T12:10:15.846Z,4.72
2019-01-14T12:11:15.883Z,4.84
2019-01-14T12:12:16.141Z,4.81
2019-01-14T12:13:16.427Z,4.74
2019-01-14T12:14:15.755Z,4.75
2019-01-14T12:15:16.027Z,4.81
2019-01-14T12:16:16.305Z,4.63
2019-01-14T12:17:15.568Z,4.63
2019-01-14T12:18:15.842Z,4.65
2019-01-14T12:19:16.120Z,4.68
2019-01-14T12:20:16.385Z,4.69
2019-01-14T12:21:16.447Z,4.69
2019-01-14T12:22:15.713Z,4.76
2019-01-14T12:23:15.985Z,4.76
2019-01-14T12:24:16.254Z,4.76
2019-01-14T12:25:16.521Z,4.63
2019-01-14T12:26:15.796Z,4.64
2019-01-14T12:27:16.065Z,4.71
2019-01-14T12:28:16.332Z,4.64
2019-01-14T12:29:15.599Z,4.69
2019-01-14T12:30:15.886Z,4.60
2019-01-14T12:31:15.919Z,4.61
2019-01-14T12:32:16.182Z,4.65
2019-01-14T12:33:16.443Z,4.67
2019-01-14T12:34:15.714Z,4.63
2019-01-14T12:35:15.971Z,4.63
2019-01-14T12:36:16.235Z,4.57
2019-01-14T12:37:16.496Z,4.54
2019-01-14T12:38:15.762Z,4.61
2019-01-14T12:39:19.568Z,4.63
2019-01-14T12:40:16.160Z,4.51
2019-01-14T12:41:16.201Z,4.55
2019-01-14T12:42:16.470Z,4.58
2019-01-14T12:43:15.998Z,4.65
2019-01-14T12:44:16.265Z,4.65
2019-01-14T12:45:16.564Z,4.64
2019-01-14T12:46:15.829Z,4.64
2019-01-14T12:47:16.101Z,4.67
2019-01-14T12:48:16.366Z,4.68
2019-01-14T12:49:15.630Z,4.63
2019-01-14T12:50:15.897Z,4.63
2019-01-14T12:51:15.959Z,4.76
2019-01-14T12:52:16.224Z,4.74
2019-01-14T12:53:16.488Z,4.55
2019-01-14T12:54:15.752Z,4.58
2019-01-14T12:55:16.058Z,4.55
2019-01-14T12:56:16.326Z,4.46
2019-01-14T12:57:15.588Z,4.47
2019-01-14T12:58:15.859Z,4.44
2019-01-14T12:59:16.124Z,4.41
2019-01-14T13:00:16.404Z,4.36
2019-01-14T13:01:16.444Z,4.38
2019-01-14T13:02:15.707Z,4.53
2019-01-14T13:03:15.983Z,4.53
2019-01-14T13:04:16.241Z,4.47
2019-01-14T13:05:16.512Z,4.54
2019-01-14T13:06:15.787Z,4.53
2019-01-14T13:07:16.054Z,4.43
2019-01-14T13:08:16.307Z,4.33
2019-01-14T13:09:15.586Z,4.37
2019-01-14T13:10:15.850Z,4.43
2019-01-14T13:11:15.908Z,4.40
2019-01-14T13:12:16.164Z,4.37
2019-01-14T13:13:16.489Z,4.34
2019-01-14T13:14:15.749Z,4.31
2019-01-14T13:15:16.027Z,4.24
2019-01-14T13:16:16.298Z,4.19
2019-01-14T13:17:15.551Z,4.13
2019-01-14T13:18:15.831Z,4.13